Time;durP1;ratioP1;P1;durP2;ratioP2;P2;SDS_P1;SDS_P2;PMS_P1;PMS_P2;Temp;Humidity;BMP_temperature;BMP_pressure;BME280_temperature;BME280_humidity;BME280_pressure;Samples;Min_cycle;Max_cycle;Signal;HPM_P1;HPM_P2
2022/01/12 00:01:14;0.00;0.00;0.62;0.00;0.00;0.62;2.07;1.67;;;20.50;28.20;;;;;;2242117;62;20362;-63
2022/01/12 00:03:59;0.00;0.00;0.62;0.00;0.00;0.62;3.13;1.90;;;20.50;28.20;;;;;;2241628;62;20511;-62
2022/01/12 00:06:45;0.00;0.00;0.62;0.00;0.00;0.62;2.90;2.17;;;20.50;28.20;;;;;;2241391;62;20379;-61
2022/01/12 00:09:30;0.00;0.00;0.62;0.00;0.00;0.62;2.33;1.93;;;20.50;28.20;;;;;;2241930;62;20375;-61
2022/01/12 00:12:14;0.00;0.00;0.62;0.00;0.00;0.62;2.93;2.60;;;20.50;28.20;;;;;;2241197;62;20358;-62
2022/01/12 00:14:59;0.00;0.00;0.62;0.00;0.00;0.62;3.70;2.90;;;20.50;28.20;;;;;;2241650;62;20427;-61
2022/01/12 00:17:44;0.00;0.00;0.62;0.00;0.00;0.62;3.63;2.97;;;20.40;28.00;;;;;;2241801;62;20390;-61
2022/01/12 00:20:28;0.00;0.00;0.62;0.00;0.00;0.62;3.57;3.10;;;20.40;27.90;;;;;;2241218;62;20462;-61
2022/01/12 00:23:15;0.00;0.00;0.62;0.00;0.00;0.62;4.10;3.30;;;20.50;27.90;;;;;;2241777;62;20354;-60
2022/01/12 00:26:07;0.00;0.00;0.62;0.00;0.00;0.62;3.53;2.90;;;20.40;27.80;;;;;;2241288;62;20371;-61
2022/01/12 00:35:07;0.00;0.00;0.62;0.00;0.00;0.62;3.50;3.20;;;20.40;27.50;;;;;;2241389;62;20390;-62
2022/01/12 00:37:52;0.00;0.00;0.62;0.00;0.00;0.62;4.50;3.30;;;20.40;27.40;;;;;;2241778;62;20745;-61
2022/01/12 00:40:40;0.00;0.00;0.62;0.00;0.00;0.62;4.33;3.27;;;20.40;27.40;;;;;;2241066;62;20431;-61
2022/01/12 00:43:27;0.00;0.00;0.62;0.00;0.00;0.62;4.90;3.87;;;20.30;27.30;;;;;;2243659;61;20359;-62
2022/01/12 00:46:12;0.00;0.00;0.62;0.00;0.00;0.62;4.27;3.87;;;20.30;27.30;;;;;;2241754;62;20439;-62
2022/01/12 00:48:58;0.00;0.00;0.62;0.00;0.00;0.62;4.37;3.47;;;20.30;27.30;;;;;;2243577;61;20411;-61
2022/01/12 00:51:43;0.00;0.00;0.62;0.00;0.00;0.62;4.37;3.83;;;20.30;27.30;;;;;;2241663;62;20390;-62
2022/01/12 00:54:28;0.00;0.00;0.62;0.00;0.00;0.62;4.33;3.80;;;20.30;27.20;;;;;;2241283;62;20398;-62
2022/01/12 00:57:13;0.00;0.00;0.62;0.00;0.00;0.62;3.80;3.30;;;20.20;27.10;;;;;;2241379;62;20402;-61
2022/01/12 00:59:58;0.00;0.00;0.62;0.00;0.00;0.62;3.83;3.13;;;20.20;27.00;;;;;;2243940;61;20398;-62
2022/01/12 01:02:42;0.00;0.00;0.62;0.00;0.00;0.62;4.30;3.33;;;20.20;27.00;;;;;;2243438;61;20434;-62
2022/01/12 01:05:31;0.00;0.00;0.62;0.00;0.00;0.62;4.20;3.67;;;20.20;27.00;;;;;;2241102;62;20625;-62
2022/01/12 01:08:17;0.00;0.00;0.62;0.00;0.00;0.62;4.10;3.53;;;20.20;26.90;;;;;;2243828;61;20407;-62
2022/01/12 01:11:02;0.00;0.00;0.62;0.00;0.00;0.62;4.23;3.30;;;20.20;26.90;;;;;;2243668;61;20362;-61
2022/01/12 01:14:01;0.00;0.00;0.62;0.00;0.00;0.62;4.20;3.33;;;20.20;26.90;;;;;;2243561;61;20387;-62
2022/01/12 01:17:16;0.00;0.00;0.62;0.00;0.00;0.62;3.63;3.33;;;20.10;26.80;;;;;;2243646;61;20438;-62
2022/01/12 01:26:05;0.00;0.00;0.62;0.00;0.00;0.62;4.73;4.10;;;20.10;26.80;;;;;;2241227;62;20707;-62
2022/01/12 01:28:51;0.00;0.00;0.62;0.00;0.00;0.62;4.23;3.33;;;20.10;26.90;;;;;;2241362;62;20389;-62
2022/01/12 01:31:37;0.00;0.00;0.62;0.00;0.00;0.62;3.63;3.30;;;20.00;26.80;;;;;;2241702;62;20358;-61
2022/01/12 01:34:26;0.00;0.00;0.62;0.00;0.00;0.62;6.30;3.93;;;20.00;26.80;;;;;;2243471;61;20848;-61
2022/01/12 01:37:11;0.00;0.00;0.62;0.00;0.00;0.62;3.70;3.00;;;20.00;26.80;;;;;;2243569;61;20389;-61
2022/01/12 01:39:56;0.00;0.00;0.62;0.00;0.00;0.62;3.20;2.90;;;20.00;26.80;;;;;;2243584;61;20366;-62
2022/01/12 01:54:51;0.00;0.00;0.62;0.00;0.00;0.62;4.57;4.17;;;19.90;26.50;;;;;;2241166;62;20382;-61
2022/01/12 01:57:37;0.00;0.00;0.62;0.00;0.00;0.62;5.70;4.00;;;19.90;26.50;;;;;;2243239;61;20371;-61
2022/01/12 02:00:25;0.00;0.00;0.62;0.00;0.00;0.62;4.00;3.40;;;19.90;26.50;;;;;;2243789;61;20652;-61
2022/01/12 02:03:12;0.00;0.00;0.62;0.00;0.00;0.62;5.20;4.10;;;19.90;26.50;;;;;;2241029;62;20374;-62
2022/01/12 02:06:04;0.00;0.00;0.62;0.00;0.00;0.62;4.93;3.57;;;19.90;26.50;;;;;;2243363;61;20827;-62
2022/01/12 02:08:49;0.00;0.00;0.62;0.00;0.00;0.62;6.70;4.33;;;19.90;26.50;;;;;;2241582;62;20418;-62
2022/01/12 02:12:07;0.00;0.00;0.62;0.00;0.00;0.62;4.80;4.00;;;19.80;26.50;;;;;;2244384;61;20393;-61
2022/01/12 02:14:52;0.00;0.00;0.62;0.00;0.00;0.62;4.47;3.80;;;19.90;26.50;;;;;;2245238;61;20397;-61
2022/01/12 02:17:42;0.00;0.00;0.62;0.00;0.00;0.62;4.77;3.93;;;19.90;26.50;;;;;;2244964;61;20357;-62
2022/01/12 02:36:23;0.00;0.00;0.62;0.00;0.00;0.62;6.53;4.10;;;19.80;26.50;;;;;;2245217;61;20385;-61
2022/01/12 02:42:17;0.00;0.00;0.62;0.00;0.00;0.62;4.57;3.93;;;19.80;26.50;;;;;;2243965;61;20446;-62
2022/01/12 02:54:13;0.00;0.00;0.62;0.00;0.00;0.62;4.40;3.97;;;19.80;26.50;;;;;;2243807;61;20467;-61
2022/01/12 02:56:57;0.00;0.00;0.62;0.00;0.00;0.62;4.77;4.07;;;19.70;26.40;;;;;;2244019;61;20370;-61
2022/01/12 03:00:03;0.00;0.00;0.62;0.00;0.00;0.62;4.50;4.10;;;19.80;26.50;;;;;;2244283;61;20406;-62
2022/01/12 03:02:52;0.00;0.00;0.62;0.00;0.00;0.62;4.43;4.03;;;19.80;26.50;;;;;;2243867;61;20901;-62
2022/01/12 03:05:47;0.00;0.00;0.62;0.00;0.00;0.62;3.47;3.17;;;19.70;26.40;;;;;;2244155;61;20447;-61
2022/01/12 03:08:39;0.00;0.00;0.62;0.00;0.00;0.62;3.60;3.30;;;19.70;26.40;;;;;;2241775;62;20363;-61
2022/01/12 03:11:27;0.00;0.00;0.62;0.00;0.00;0.62;4.43;3.57;;;19.70;26.40;;;;;;2241751;62;20367;-61
2022/01/12 03:14:14;0.00;0.00;0.62;0.00;0.00;0.62;3.83;3.40;;;19.70;26.40;;;;;;2244118;61;20402;-61
2022/01/12 03:17:00;0.00;0.00;0.62;0.00;0.00;0.62;3.40;3.10;;;19.70;26.40;;;;;;2241467;62;20363;-61
2022/01/12 03:19:48;0.00;0.00;0.62;0.00;0.00;0.62;4.37;3.33;;;19.70;26.40;;;;;;2244196;61;20435;-62
2022/01/12 03:22:33;0.00;0.00;0.62;0.00;0.00;0.62;3.93;2.97;;;19.60;26.30;;;;;;2243849;61;20358;-61
2022/01/12 03:25:17;0.00;0.00;0.62;0.00;0.00;0.62;3.23;2.93;;;19.60;26.30;;;;;;2241570;62;20741;-61
2022/01/12 03:28:06;0.00;0.00;0.62;0.00;0.00;0.62;3.70;3.30;;;19.60;26.30;;;;;;2244264;61;20635;-62
2022/01/12 03:30:54;0.00;0.00;0.62;0.00;0.00;0.62;3.50;3.03;;;19.60;26.30;;;;;;2243964;61;20435;-62
2022/01/12 03:36:42;0.00;0.00;0.62;0.00;0.00;0.62;2.90;2.60;;;19.50;26.30;;;;;;2244136;61;20486;-61
2022/01/12 03:39:26;0.00;0.00;0.62;0.00;0.00;0.62;3.50;2.97;;;19.50;26.30;;;;;;2243866;61;20366;-61
2022/01/12 03:42:12;0.00;0.00;0.62;0.00;0.00;0.62;3.90;2.83;;;19.50;26.30;;;;;;2243999;61;20375;-61
2022/01/12 03:44:58;0.00;0.00;0.62;0.00;0.00;0.62;3.23;2.87;;;19.50;26.30;;;;;;2244092;61;20470;-62
2022/01/12 03:47:42;0.00;0.00;0.62;0.00;0.00;0.62;4.63;2.53;;;19.40;26.10;;;;;;2241626;62;20442;-62
2022/01/12 03:50:27;0.00;0.00;0.62;0.00;0.00;0.62;2.80;2.50;;;19.40;26.20;;;;;;2241900;62;20382;-61
2022/01/12 03:53:11;0.00;0.00;0.62;0.00;0.00;0.62;2.73;2.23;;;19.40;26.20;;;;;;2241349;62;20794;-61
2022/01/12 03:55:56;0.00;0.00;0.62;0.00;0.00;0.62;3.57;2.73;;;19.40;26.20;;;;;;2243701;61;20806;-61
2022/01/12 03:58:41;0.00;0.00;0.62;0.00;0.00;0.62;3.17;2.30;;;19.40;26.20;;;;;;2241991;62;20349;-61
2022/01/12 04:01:27;0.00;0.00;0.62;0.00;0.00;0.62;3.00;2.20;;;19.40;26.20;;;;;;2241480;62;20363;-61
2022/01/12 04:04:21;0.00;0.00;0.62;0.00;0.00;0.62;2.60;2.10;;;19.40;26.20;;;;;;2243803;61;20386;-61
2022/01/12 04:10:10;0.00;0.00;0.62;0.00;0.00;0.62;2.40;2.10;;;19.30;26.10;;;;;;2244129;61;20390;-61
2022/01/12 04:12:55;0.00;0.00;0.62;0.00;0.00;0.62;2.87;2.10;;;19.40;26.20;;;;;;2244192;61;20366;-61
2022/01/12 04:15:40;0.00;0.00;0.62;0.00;0.00;0.62;3.17;2.60;;;19.30;26.10;;;;;;2244125;61;20378;-62
2022/01/12 04:18:26;0.00;0.00;0.62;0.00;0.00;0.62;4.00;2.57;;;19.30;26.10;;;;;;2241502;62;20468;-62
2022/01/12 04:21:13;0.00;0.00;0.62;0.00;0.00;0.62;4.30;2.70;;;19.30;26.10;;;;;;2244011;61;20362;-62
2022/01/12 04:23:58;0.00;0.00;0.62;0.00;0.00;0.62;3.10;2.37;;;19.30;26.10;;;;;;2243569;61;20403;-62
2022/01/12 04:26:44;0.00;0.00;0.62;0.00;0.00;0.62;4.00;2.80;;;19.30;26.10;;;;;;2243876;61;20597;-62
2022/01/12 04:29:28;0.00;0.00;0.62;0.00;0.00;0.62;3.80;2.20;;;19.30;26.10;;;;;;2243958;61;20386;-62
2022/01/12 04:32:13;0.00;0.00;0.62;0.00;0.00;0.62;2.93;2.00;;;19.30;26.10;;;;;;2241496;62;20367;-62
2022/01/12 04:34:59;0.00;0.00;0.62;0.00;0.00;0.62;2.07;1.73;;;19.30;26.10;;;;;;2241961;62;20398;-61
2022/01/12 04:37:44;0.00;0.00;0.62;0.00;0.00;0.62;2.93;2.50;;;19.30;26.10;;;;;;2243721;61;20370;-62
2022/01/12 04:40:28;0.00;0.00;0.62;0.00;0.00;0.62;2.40;2.00;;;19.30;26.10;;;;;;2243490;61;20731;-62
2022/01/12 04:43:14;0.00;0.00;0.62;0.00;0.00;0.62;3.23;2.23;;;19.30;26.10;;;;;;2241587;62;20714;-62
2022/01/12 04:51:51;0.00;0.00;0.62;0.00;0.00;0.62;2.53;2.03;;;19.20;26.00;;;;;;2244015;61;20628;-62
2022/01/12 04:54:36;0.00;0.00;0.62;0.00;0.00;0.62;3.10;2.17;;;19.20;26.60;;;;;;2243811;61;20511;-61
2022/01/12 04:57:21;0.00;0.00;0.62;0.00;0.00;0.62;3.87;2.30;;;19.20;26.10;;;;;;2244281;61;20402;-62
2022/01/12 05:00:14;0.00;0.00;0.62;0.00;0.00;0.62;2.83;2.27;;;19.20;26.00;;;;;;2243840;61;20367;-61
2022/01/12 05:09:27;0.00;0.00;0.62;0.00;0.00;0.62;3.20;1.80;;;19.30;26.10;;;;;;2243563;61;20605;-61
2022/01/12 05:15:24;0.00;0.00;0.62;0.00;0.00;0.62;2.97;2.03;;;19.20;26.00;;;;;;2241185;62;20297;-62
2022/01/12 05:18:10;0.00;0.00;0.62;0.00;0.00;0.62;2.47;1.60;;;19.30;26.10;;;;;;2243742;61;20362;-61
2022/01/12 05:20:54;0.00;0.00;0.62;0.00;0.00;0.62;3.77;1.60;;;19.30;26.10;;;;;;2241692;62;20434;-62
2022/01/12 05:23:40;0.00;0.00;0.62;0.00;0.00;0.62;1.90;1.50;;;19.30;26.10;;;;;;2243354;61;20475;-62
2022/01/12 05:26:26;0.00;0.00;0.62;0.00;0.00;0.62;2.73;1.60;;;19.30;26.10;;;;;;2241456;62;20415;-61
2022/01/12 05:29:11;0.00;0.00;0.62;0.00;0.00;0.62;3.70;2.50;;;19.30;26.10;;;;;;2241285;62;20569;-62
2022/01/12 05:31:55;0.00;0.00;0.62;0.00;0.00;0.62;3.00;2.00;;;19.30;26.10;;;;;;2243398;61;20397;-61
2022/01/12 05:34:42;0.00;0.00;0.62;0.00;0.00;0.62;3.00;2.00;;;19.30;26.10;;;;;;2243728;61;20394;-59
2022/01/12 05:37:28;0.00;0.00;0.62;0.00;0.00;0.62;2.30;2.10;;;19.30;26.10;;;;;;2243516;61;20771;-61
2022/01/12 05:40:16;0.00;0.00;0.62;0.00;0.00;0.62;2.83;2.57;;;19.20;26.00;;;;;;2243637;61;20370;-62
2022/01/12 05:43:03;0.00;0.00;0.62;0.00;0.00;0.62;4.20;2.53;;;19.20;26.00;;;;;;2243800;61;20362;-62
2022/01/12 05:45:48;0.00;0.00;0.62;0.00;0.00;0.62;4.10;2.40;;;19.20;26.00;;;;;;2243176;61;20382;-62
2022/01/12 05:51:36;0.00;0.00;0.62;0.00;0.00;0.62;4.63;3.40;;;19.20;26.00;;;;;;2243513;61;20651;-61
2022/01/12 05:54:21;0.00;0.00;0.62;0.00;0.00;0.62;4.30;3.37;;;19.10;26.00;;;;;;2243143;61;20446;-61
2022/01/12 05:57:05;0.00;0.00;0.62;0.00;0.00;0.62;4.93;4.20;;;19.10;25.80;;;;;;2243703;61;20370;-61
2022/01/12 05:59:52;0.00;0.00;0.62;0.00;0.00;0.62;5.50;4.17;;;19.10;25.70;;;;;;2243409;61;20778;-61
2022/01/12 06:02:36;0.00;0.00;0.62;0.00;0.00;0.62;4.93;3.30;;;19.00;25.70;;;;;;2243551;61;20727;-62
2022/01/12 06:05:23;0.00;0.00;0.62;0.00;0.00;0.62;5.03;3.70;;;19.00;25.80;;;;;;2241240;62;20398;-61
2022/01/12 06:08:07;0.00;0.00;0.62;0.00;0.00;0.62;3.43;3.13;;;19.00;25.70;;;;;;2241094;62;20370;-60
2022/01/12 06:10:52;0.00;0.00;0.62;0.00;0.00;0.62;5.80;3.47;;;18.90;25.70;;;;;;2243819;61;20439;-61
2022/01/12 06:13:38;0.00;0.00;0.62;0.00;0.00;0.62;4.33;3.00;;;18.90;25.80;;;;;;2243168;61;20470;-62
2022/01/12 06:16:25;0.00;0.00;0.62;0.00;0.00;0.62;3.33;2.80;;;18.90;25.80;;;;;;2243218;61;20366;-62
2022/01/12 06:19:09;0.00;0.00;0.62;0.00;0.00;0.62;4.50;3.10;;;18.90;25.80;;;;;;2243810;61;20442;-62
2022/01/12 06:22:06;0.00;0.00;0.62;0.00;0.00;0.62;4.40;2.97;;;18.90;25.80;;;;;;2243104;61;20358;-63
2022/01/12 06:24:51;0.00;0.00;0.62;0.00;0.00;0.62;2.97;2.63;;;18.90;25.90;;;;;;2243668;61;20389;-62
2022/01/12 06:27:36;0.00;0.00;0.62;0.00;0.00;0.62;3.47;2.63;;;18.90;26.00;;;;;;2243772;61;20440;-60
2022/01/12 06:33:12;0.00;0.00;0.62;0.00;0.00;0.62;2.70;2.20;;;18.90;26.10;;;;;;2241230;62;20652;-62
2022/01/12 06:35:57;0.00;0.00;0.62;0.00;0.00;0.62;2.50;2.10;;;19.00;26.20;;;;;;2243342;61;20831;-62
2022/01/12 06:38:42;0.00;0.00;0.62;0.00;0.00;0.62;3.30;2.33;;;19.00;26.20;;;;;;2243264;61;20874;-62
2022/01/12 06:41:27;0.00;0.00;0.62;0.00;0.00;0.62;2.70;1.83;;;19.00;26.20;;;;;;2241387;62;20710;-61
2022/01/12 06:44:16;0.00;0.00;0.62;0.00;0.00;0.62;2.50;1.90;;;19.00;26.20;;;;;;2243150;61;20391;-62
2022/01/12 06:47:03;0.00;0.00;0.62;0.00;0.00;0.62;3.10;2.10;;;19.00;26.20;;;;;;2243427;61;20486;-62
2022/01/12 06:49:49;0.00;0.00;0.62;0.00;0.00;0.62;2.37;2.00;;;19.00;26.20;;;;;;2243713;61;20452;-62
2022/01/12 06:52:35;0.00;0.00;0.62;0.00;0.00;0.62;2.20;1.97;;;19.00;26.30;;;;;;2243268;61;20762;-61
2022/01/12 06:55:20;0.00;0.00;0.62;0.00;0.00;0.62;3.80;1.93;;;19.00;26.30;;;;;;2243472;61;20413;-61
2022/01/12 06:58:04;0.00;0.00;0.62;0.00;0.00;0.62;2.47;1.83;;;19.00;26.40;;;;;;2243781;61;20875;-61
2022/01/12 07:00:49;0.00;0.00;0.62;0.00;0.00;0.62;2.77;1.63;;;19.00;26.30;;;;;;2241565;62;20382;-60
2022/01/12 07:03:34;0.00;0.00;0.62;0.00;0.00;0.62;2.70;1.93;;;19.10;26.30;;;;;;2241982;62;20358;-62
2022/01/12 07:06:21;0.00;0.00;0.62;0.00;0.00;0.62;2.33;1.40;;;19.10;26.40;;;;;;2243766;61;20382;-61
2022/01/12 07:09:06;0.00;0.00;0.62;0.00;0.00;0.62;2.80;1.80;;;19.10;26.40;;;;;;2244232;61;20370;-61
2022/01/12 07:12:23;0.00;0.00;0.62;0.00;0.00;0.62;1.67;1.40;;;19.10;26.40;;;;;;2241314;62;20382;-61
2022/01/12 07:15:10;0.00;0.00;0.62;0.00;0.00;0.62;2.10;1.60;;;19.10;26.40;;;;;;2244154;61;20442;-61
2022/01/12 07:18:03;0.00;0.00;0.62;0.00;0.00;0.62;3.20;1.93;;;19.10;26.40;;;;;;2244727;61;20398;-62
2022/01/12 07:20:47;0.00;0.00;0.62;0.00;0.00;0.62;2.00;1.43;;;19.10;26.40;;;;;;2244109;61;20386;-62
2022/01/12 07:23:33;0.00;0.00;0.62;0.00;0.00;0.62;2.60;1.60;;;19.10;26.40;;;;;;2241807;62;20383;-62
2022/01/12 07:26:18;0.00;0.00;0.62;0.00;0.00;0.62;2.13;1.77;;;19.10;26.40;;;;;;2241837;62;20584;-62
2022/01/12 07:29:02;0.00;0.00;0.62;0.00;0.00;0.62;1.60;1.30;;;19.10;26.40;;;;;;2241518;62;20423;-61
2022/01/12 07:31:48;0.00;0.00;0.62;0.00;0.00;0.62;2.07;1.40;;;19.20;26.50;;;;;;2241902;62;20366;-62
2022/01/12 07:34:32;0.00;0.00;0.62;0.00;0.00;0.62;2.73;1.43;;;19.20;26.50;;;;;;2241787;62;20394;-61
2022/01/12 07:37:17;0.00;0.00;0.62;0.00;0.00;0.62;1.60;1.20;;;19.20;26.50;;;;;;2241830;62;20370;-62
2022/01/12 07:40:04;0.00;0.00;0.62;0.00;0.00;0.62;2.80;1.70;;;19.20;26.50;;;;;;2242131;62;20775;-62
2022/01/12 07:42:51;0.00;0.00;0.62;0.00;0.00;0.62;2.10;1.67;;;19.20;26.50;;;;;;2241732;62;20588;-61
2022/01/12 07:45:36;0.00;0.00;0.62;0.00;0.00;0.62;2.00;1.30;;;19.20;26.50;;;;;;2243951;61;20407;-62
2022/01/12 07:48:21;0.00;0.00;0.62;0.00;0.00;0.62;2.10;1.30;;;19.20;26.50;;;;;;2241770;62;20365;-62
2022/01/12 07:51:06;0.00;0.00;0.62;0.00;0.00;0.62;1.77;1.33;;;19.20;26.50;;;;;;2241635;62;20398;-62
2022/01/12 07:53:50;0.00;0.00;0.62;0.00;0.00;0.62;1.93;1.47;;;19.20;26.50;;;;;;2241360;62;20385;-61
2022/01/12 07:56:36;0.00;0.00;0.62;0.00;0.00;0.62;2.10;1.43;;;19.20;26.50;;;;;;2241883;62;20410;-62
2022/01/12 07:59:21;0.00;0.00;0.62;0.00;0.00;0.62;2.30;1.20;;;19.20;26.50;;;;;;2241597;62;20403;-62
2022/01/12 08:02:06;0.00;0.00;0.62;0.00;0.00;0.62;1.90;1.30;;;19.20;26.50;;;;;;2241644;62;20406;-62
2022/01/12 08:04:51;0.00;0.00;0.62;0.00;0.00;0.62;1.63;1.40;;;19.20;26.50;;;;;;2241591;62;20398;-62
2022/01/12 08:07:39;0.00;0.00;0.62;0.00;0.00;0.62;1.50;1.10;;;19.30;26.50;;;;;;2241594;62;20446;-61
2022/01/12 08:10:24;0.00;0.00;0.62;0.00;0.00;0.62;1.70;1.30;;;19.30;26.50;;;;;;2241728;62;20370;-62
2022/01/12 08:13:10;0.00;0.00;0.62;0.00;0.00;0.62;1.80;1.33;;;19.30;26.50;;;;;;2241219;62;20410;-63
2022/01/12 08:15:55;0.00;0.00;0.62;0.00;0.00;0.62;1.80;1.50;;;19.30;26.60;;;;;;2241467;62;20389;-62
2022/01/12 08:18:39;0.00;0.00;0.62;0.00;0.00;0.62;2.27;1.50;;;19.30;26.50;;;;;;2241761;62;20710;-62
2022/01/12 08:21:27;0.00;0.00;0.62;0.00;0.00;0.62;2.03;1.40;;;19.30;26.50;;;;;;2241389;62;20726;-62
2022/01/12 08:24:12;0.00;0.00;0.62;0.00;0.00;0.62;1.57;1.23;;;19.30;26.50;;;;;;2241589;62;20383;-62
2022/01/12 08:26:57;0.00;0.00;0.62;0.00;0.00;0.62;2.10;1.70;;;19.30;26.50;;;;;;2241336;62;20631;-61
2022/01/12 08:29:43;0.00;0.00;0.62;0.00;0.00;0.62;2.47;1.67;;;19.30;26.50;;;;;;2241358;62;20430;-63
2022/01/12 08:32:29;0.00;0.00;0.62;0.00;0.00;0.62;2.03;1.40;;;19.30;26.50;;;;;;2241708;62;20375;-62
2022/01/12 08:35:15;0.00;0.00;0.62;0.00;0.00;0.62;2.17;1.40;;;19.30;26.50;;;;;;2241190;62;20394;-62
2022/01/12 08:38:00;0.00;0.00;0.62;0.00;0.00;0.62;2.10;1.27;;;19.30;26.50;;;;;;2241550;62;20414;-62
2022/01/12 08:40:45;0.00;0.00;0.62;0.00;0.00;0.62;1.80;1.30;;;19.40;26.60;;;;;;2241664;62;20414;-61
2022/01/12 08:43:29;0.00;0.00;0.62;0.00;0.00;0.62;2.00;1.40;;;19.40;26.60;;;;;;2243619;61;20439;-61
2022/01/12 08:46:15;0.00;0.00;0.62;0.00;0.00;0.62;3.13;2.00;;;19.40;26.60;;;;;;2241648;62;20370;-63
2022/01/12 08:48:59;0.00;0.00;0.62;0.00;0.00;0.62;2.00;1.50;;;19.40;26.60;;;;;;2241403;62;20406;-62
2022/01/12 08:51:44;0.00;0.00;0.62;0.00;0.00;0.62;2.00;1.40;;;19.40;26.60;;;;;;2243642;61;20664;-62
2022/01/12 08:54:28;0.00;0.00;0.62;0.00;0.00;0.62;2.83;1.13;;;19.40;26.60;;;;;;2241468;62;20662;-63
2022/01/12 08:57:13;0.00;0.00;0.62;0.00;0.00;0.62;1.70;1.30;;;19.40;26.60;;;;;;2241414;62;20395;-62
2022/01/12 08:59:58;0.00;0.00;0.62;0.00;0.00;0.62;2.47;1.53;;;19.40;26.60;;;;;;2241434;62;20394;-62
2022/01/12 09:02:45;0.00;0.00;0.62;0.00;0.00;0.62;2.50;1.77;;;19.40;26.60;;;;;;2241620;62;20387;-62
2022/01/12 09:05:29;0.00;0.00;0.62;0.00;0.00;0.62;1.63;1.20;;;19.40;26.60;;;;;;2241110;62;20398;-61
2022/01/12 09:08:14;0.00;0.00;0.62;0.00;0.00;0.62;2.23;1.40;;;19.40;26.60;;;;;;2241557;62;20402;-61
2022/01/12 09:10:59;0.00;0.00;0.62;0.00;0.00;0.62;1.90;1.37;;;19.40;26.60;;;;;;2241404;62;20743;-62
2022/01/12 09:13:43;0.00;0.00;0.62;0.00;0.00;0.62;2.07;1.53;;;19.50;26.60;;;;;;2241110;62;20446;-62
2022/01/12 09:16:28;0.00;0.00;0.62;0.00;0.00;0.62;2.17;1.70;;;19.50;26.60;;;;;;2241881;62;20373;-60
2022/01/12 09:19:13;0.00;0.00;0.62;0.00;0.00;0.62;2.40;1.50;;;19.50;26.60;;;;;;2241561;62;20362;-62
2022/01/12 09:21:58;0.00;0.00;0.62;0.00;0.00;0.62;2.00;1.60;;;19.50;26.60;;;;;;2241390;62;20379;-62
2022/01/12 09:24:44;0.00;0.00;0.62;0.00;0.00;0.62;2.00;1.47;;;19.50;26.60;;;;;;2241689;62;20434;-67
2022/01/12 09:27:29;0.00;0.00;0.62;0.00;0.00;0.62;1.73;1.30;;;19.50;26.60;;;;;;2241101;62;20749;-61
2022/01/12 09:30:16;0.00;0.00;0.62;0.00;0.00;0.62;2.10;1.40;;;19.50;26.60;;;;;;2241458;62;20406;-62
2022/01/12 09:33:01;0.00;0.00;0.62;0.00;0.00;0.62;1.70;1.37;;;19.50;26.60;;;;;;2241454;62;20715;-61
2022/01/12 09:35:49;0.00;0.00;0.62;0.00;0.00;0.62;1.90;1.47;;;19.50;26.60;;;;;;2241351;62;20600;-61
2022/01/12 09:38:34;0.00;0.00;0.62;0.00;0.00;0.62;2.00;1.30;;;19.50;26.60;;;;;;2241906;62;20487;-61
2022/01/12 09:41:18;0.00;0.00;0.62;0.00;0.00;0.62;1.60;1.23;;;19.50;26.60;;;;;;2241474;62;20362;-60
2022/01/12 09:44:04;0.00;0.00;0.62;0.00;0.00;0.62;2.17;1.50;;;19.50;26.60;;;;;;2241164;62;20386;-61
2022/01/12 09:46:48;0.00;0.00;0.62;0.00;0.00;0.62;2.53;1.90;;;19.50;26.60;;;;;;2241455;62;20370;-62
2022/01/12 09:49:34;0.00;0.00;0.62;0.00;0.00;0.62;1.90;1.43;;;19.50;26.60;;;;;;2241172;62;20421;-62
2022/01/12 09:52:20;0.00;0.00;0.62;0.00;0.00;0.62;2.60;1.70;;;19.60;26.70;;;;;;2241221;62;20370;-62
2022/01/12 09:55:06;0.00;0.00;0.62;0.00;0.00;0.62;2.17;1.40;;;19.60;26.70;;;;;;2243727;61;20511;-62
2022/01/12 09:57:51;0.00;0.00;0.62;0.00;0.00;0.62;2.10;1.40;;;19.60;26.70;;;;;;2241447;62;20418;-61
2022/01/12 10:00:35;0.00;0.00;0.62;0.00;0.00;0.62;2.33;1.70;;;19.60;26.70;;;;;;2241980;62;20366;-61
2022/01/12 10:03:22;0.00;0.00;0.62;0.00;0.00;0.62;2.43;1.43;;;19.60;26.70;;;;;;2241128;62;20713;-61
2022/01/12 10:06:14;0.00;0.00;0.62;0.00;0.00;0.62;2.33;1.40;;;19.60;26.70;;;;;;2240879;62;20378;-62
2022/01/12 10:09:00;0.00;0.00;0.62;0.00;0.00;0.62;2.17;1.60;;;19.60;26.70;;;;;;2241533;62;20367;-62
2022/01/12 10:11:54;0.00;0.00;0.62;0.00;0.00;0.62;1.90;1.30;;;19.60;26.70;;;;;;2243375;61;20690;-61
2022/01/12 10:14:44;0.00;0.00;0.62;0.00;0.00;0.62;1.60;1.20;;;19.60;26.70;;;;;;2243550;61;20774;-61
2022/01/12 10:17:35;0.00;0.00;0.62;0.00;0.00;0.62;1.70;1.20;;;19.60;27.20;;;;;;2241311;62;20366;-61
2022/01/12 10:20:22;0.00;0.00;0.62;0.00;0.00;0.62;1.43;1.23;;;19.60;26.70;;;;;;2241095;62;20390;-63
2022/01/12 10:23:11;0.00;0.00;0.62;0.00;0.00;0.62;1.90;1.60;;;19.60;26.70;;;;;;2241689;62;20585;-63
2022/01/12 10:25:57;0.00;0.00;0.62;0.00;0.00;0.62;1.90;1.50;;;19.60;26.70;;;;;;2241280;62;20410;-62
2022/01/12 10:28:43;0.00;0.00;0.62;0.00;0.00;0.62;1.70;1.30;;;19.60;26.70;;;;;;2243610;61;20374;-62
2022/01/12 10:31:28;0.00;0.00;0.62;0.00;0.00;0.62;1.93;1.40;;;19.60;26.70;;;;;;2241485;62;20366;-63
2022/01/12 10:34:13;0.00;0.00;0.62;0.00;0.00;0.62;1.73;1.40;;;19.60;26.70;;;;;;2241382;62;20442;-62
2022/01/12 10:36:58;0.00;0.00;0.62;0.00;0.00;0.62;1.73;1.53;;;19.60;26.70;;;;;;2242057;62;20418;-62
2022/01/12 10:39:45;0.00;0.00;0.62;0.00;0.00;0.62;1.73;1.30;;;19.60;26.70;;;;;;2242104;62;20706;-63
2022/01/12 10:42:31;0.00;0.00;0.62;0.00;0.00;0.62;1.60;1.17;;;19.70;26.70;;;;;;2241584;62;20403;-62
2022/01/12 10:45:15;0.00;0.00;0.62;0.00;0.00;0.62;1.80;1.27;;;19.60;26.70;;;;;;2244709;61;20381;-63
2022/01/12 10:48:02;0.00;0.00;0.62;0.00;0.00;0.62;1.90;1.50;;;19.70;26.70;;;;;;2241991;62;20414;-63
2022/01/12 10:50:53;0.00;0.00;0.62;0.00;0.00;0.62;2.90;1.70;;;19.70;26.70;;;;;;2241847;62;20401;-62
2022/01/12 10:53:38;0.00;0.00;0.62;0.00;0.00;0.62;1.77;1.20;;;19.70;26.80;;;;;;2241823;62;20385;-63
2022/01/12 10:56:24;0.00;0.00;0.62;0.00;0.00;0.62;2.27;1.53;;;19.70;26.70;;;;;;2241725;62;20370;-62
2022/01/12 10:59:16;0.00;0.00;0.62;0.00;0.00;0.62;2.27;1.63;;;19.70;26.70;;;;;;2241857;62;20625;-62
2022/01/12 11:02:02;0.00;0.00;0.62;0.00;0.00;0.62;2.23;1.40;;;19.70;26.70;;;;;;2241780;62;20446;-61
2022/01/12 11:04:47;0.00;0.00;0.62;0.00;0.00;0.62;2.20;1.50;;;19.70;26.70;;;;;;2243838;61;20458;-61
2022/01/12 11:07:32;0.00;0.00;0.62;0.00;0.00;0.62;1.67;1.20;;;19.70;26.70;;;;;;2242092;62;20357;-62
2022/01/12 11:10:19;0.00;0.00;0.62;0.00;0.00;0.62;2.30;1.30;;;19.70;26.70;;;;;;2241876;62;20394;-62
2022/01/12 11:13:03;0.00;0.00;0.62;0.00;0.00;0.62;2.10;1.50;;;19.70;26.70;;;;;;2241775;62;20366;-62
2022/01/12 11:15:50;0.00;0.00;0.62;0.00;0.00;0.62;1.93;1.37;;;19.70;26.70;;;;;;2241853;62;20382;-61
2022/01/12 11:18:38;0.00;0.00;0.62;0.00;0.00;0.62;2.37;1.40;;;19.70;26.70;;;;;;2241626;62;20454;-61
2022/01/12 11:21:28;0.00;0.00;0.62;0.00;0.00;0.62;2.27;1.73;;;19.70;26.70;;;;;;2241841;62;20410;-62
2022/01/12 11:24:15;0.00;0.00;0.62;0.00;0.00;0.62;2.30;1.60;;;19.70;26.70;;;;;;2241350;62;20423;-62
2022/01/12 11:27:03;0.00;0.00;0.62;0.00;0.00;0.62;2.13;1.60;;;19.70;26.70;;;;;;2241576;62;20479;-61
2022/01/12 11:29:48;0.00;0.00;0.62;0.00;0.00;0.62;1.70;1.20;;;19.70;26.70;;;;;;2242138;62;20374;-61
2022/01/12 11:32:34;0.00;0.00;0.62;0.00;0.00;0.62;1.60;1.20;;;19.80;26.80;;;;;;2241671;62;20426;-62
2022/01/12 11:35:26;0.00;0.00;0.62;0.00;0.00;0.62;1.60;1.30;;;19.70;26.70;;;;;;2241666;62;20453;-62
2022/01/12 11:38:23;0.00;0.00;0.62;0.00;0.00;0.62;2.10;1.50;;;19.80;26.80;;;;;;2241844;62;20366;-63
2022/01/12 11:41:11;0.00;0.00;0.62;0.00;0.00;0.62;2.07;1.47;;;19.80;26.80;;;;;;2241630;62;20394;-62
2022/01/12 11:44:05;0.00;0.00;0.62;0.00;0.00;0.62;1.90;1.40;;;19.80;26.80;;;;;;2241519;62;20422;-61
2022/01/12 11:46:52;0.00;0.00;0.62;0.00;0.00;0.62;1.73;0.93;;;19.80;26.80;;;;;;2241533;62;20409;-62
2022/01/12 11:49:44;0.00;0.00;0.62;0.00;0.00;0.62;2.13;1.40;;;19.80;26.80;;;;;;2241512;62;20362;-61
2022/01/12 11:52:31;0.00;0.00;0.62;0.00;0.00;0.62;2.47;1.27;;;19.80;26.80;;;;;;2241626;62;20367;-61
2022/01/12 11:55:18;0.00;0.00;0.62;0.00;0.00;0.62;1.80;1.30;;;19.80;26.80;;;;;;2241460;62;20548;-61
2022/01/12 11:58:03;0.00;0.00;0.62;0.00;0.00;0.62;1.93;1.50;;;19.80;26.80;;;;;;2243965;61;20575;-62
2022/01/12 12:00:48;0.00;0.00;0.62;0.00;0.00;0.62;1.83;1.20;;;19.80;26.80;;;;;;2241794;62;20404;-63
2022/01/12 12:03:33;0.00;0.00;0.62;0.00;0.00;0.62;1.70;1.10;;;19.80;26.80;;;;;;2241454;62;20363;-62
2022/01/12 12:06:21;0.00;0.00;0.62;0.00;0.00;0.62;2.60;1.67;;;19.80;26.80;;;;;;2241731;62;20664;-61
2022/01/12 12:09:17;0.00;0.00;0.62;0.00;0.00;0.62;1.93;1.37;;;19.80;26.80;;;;;;2241609;62;20471;-63
2022/01/12 12:12:10;0.00;0.00;0.62;0.00;0.00;0.62;2.00;1.23;;;19.90;26.80;;;;;;2241420;62;20358;-62
2022/01/12 12:15:00;0.00;0.00;0.62;0.00;0.00;0.62;2.17;1.43;;;19.90;26.80;;;;;;2241710;62;20619;-61
2022/01/12 12:17:44;0.00;0.00;0.62;0.00;0.00;0.62;2.20;1.47;;;19.90;26.90;;;;;;2241385;62;20611;-62